Time;durP1;ratioP1;P1;durP2;ratioP2;P2;SDS_P1;SDS_P2;PMS_P1;PMS_P2;Temp;Humidity;BMP_temperature;BMP_pressure;BME280_temperature;BME280_humidity;BME280_pressure;Samples;Min_cycle;Max_cycle;Signal;HPM_P1;HPM_P2
2022/04/18 00:00:18;;;;;;;0.80;0.80;;;;;;;4.82;100.00;61314.75;5097065;28;20445;-71
2022/04/18 00:02:45;;;;;;;2.80;1.00;;;;;;;4.72;100.00;61311.69;5093523;28;20962;-71
2022/04/18 00:05:12;;;;;;;1.40;1.20;;;;;;;4.80;100.00;61317.69;5093060;28;20445;-73
2022/04/18 00:07:42;;;;;;;0.90;0.90;;;;;;;4.97;100.00;61338.31;5092868;28;21024;-73
2022/04/18 00:10:10;;;;;;;1.33;1.00;;;;;;;4.68;100.00;61305.44;5092762;28;20848;-71
2022/04/18 00:12:37;;;;;;;1.57;1.20;;;;;;;4.87;100.00;61330.19;5092024;28;20481;-71
2022/04/18 00:15:04;;;;;;;0.87;0.87;;;;;;;4.80;100.00;61315.16;5092745;28;20510;-72
2022/04/18 00:17:31;;;;;;;1.13;1.00;;;;;;;4.99;100.00;61332.88;5091256;28;21021;-71
2022/04/18 00:19:58;;;;;;;1.60;0.93;;;;;;;4.84;100.00;61319.41;5092758;28;20441;-71
2022/04/18 00:22:25;;;;;;;0.93;0.90;;;;;;;4.89;100.00;61327.28;5092398;28;20510;-72
2022/04/18 00:24:54;;;;;;;2.17;1.20;;;;;;;4.75;100.00;61312.88;5092358;28;20495;-72
2022/04/18 00:27:21;;;;;;;1.13;1.00;;;;;;;4.70;100.00;61304.50;5092206;28;20459;-72
2022/04/18 00:29:49;;;;;;;1.20;0.90;;;;;;;4.53;100.00;61286.41;5092555;28;20442;-72
2022/04/18 00:32:16;;;;;;;1.10;1.00;;;;;;;4.72;100.00;61309.16;5092573;28;20440;-73
2022/04/18 00:34:43;;;;;;;0.90;0.90;;;;;;;4.65;100.00;61301.72;5092302;28;20850;-72
2022/04/18 00:37:10;;;;;;;1.80;1.27;;;;;;;4.66;100.00;61302.78;5092390;28;20442;-72
2022/04/18 00:39:37;;;;;;;1.47;1.13;;;;;;;4.75;100.00;61312.38;5092398;28;20438;-72
2022/04/18 00:42:07;;;;;;;1.30;1.00;;;;;;;4.86;100.00;61324.59;5092263;28;20499;-72
2022/04/18 00:44:33;;;;;;;1.10;1.00;;;;;;;4.74;100.00;61311.28;5092391;28;20450;-73
2022/04/18 00:47:00;;;;;;;1.07;0.97;;;;;;;4.77;100.00;61314.50;5092465;28;20450;-73
2022/04/18 00:49:28;;;;;;;0.97;0.90;;;;;;;4.82;100.00;61319.81;5092114;28;20446;-72
2022/04/18 00:51:57;;;;;;;1.70;1.10;;;;;;;4.86;100.00;61327.13;5092051;28;20528;-72
2022/04/18 00:54:24;;;;;;;5.40;2.50;;;;;;;4.67;100.00;61303.84;5091904;28;20479;-72
2022/04/18 00:56:53;;;;;;;1.57;1.30;;;;;;;4.49;100.00;61284.69;5092161;28;20471;-73
2022/04/18 00:59:22;;;;;;;2.10;1.40;;;;;;;4.58;100.00;61294.25;5091756;28;20957;-74
2022/04/18 01:01:50;;;;;;;1.43;1.23;;;;;;;4.56;100.00;61292.13;5091850;28;20528;-72
2022/04/18 01:04:18;;;;;;;1.33;1.23;;;;;;;4.68;100.00;61305.44;5091824;28;20453;-72
2022/04/18 01:06:45;;;;;;;1.43;1.30;;;;;;;4.59;100.00;61295.31;5091767;28;20524;-73
2022/04/18 01:09:12;;;;;;;3.33;1.20;;;;;;;4.45;100.00;61280.94;5091612;28;20437;-72
2022/04/18 01:11:39;;;;;;;1.37;1.23;;;;;;;4.39;100.00;61269.00;5091977;28;20457;-72
2022/04/18 01:14:06;;;;;;;2.20;1.10;;;;;;;4.40;100.00;61280.66;5091869;28;20548;-73
2022/04/18 01:16:34;;;;;;;1.50;1.03;;;;;;;4.46;100.00;61281.47;5091697;28;20491;-71
2022/04/18 01:19:03;;;;;;;1.00;0.90;;;;;;;4.55;100.00;61291.59;5091818;28;20639;-72
2022/04/18 01:21:31;;;;;;;0.83;0.83;;;;;;;4.57;100.00;61293.19;5091655;28;20491;-71
2022/04/18 01:23:58;;;;;;;2.03;1.27;;;;;;;4.39;100.00;61274.03;5091566;28;20507;-71
2022/04/18 01:29:10;;;;;;;1.80;1.30;;;;;;;4.43;100.00;61276.28;5091583;28;20429;-71
2022/04/18 01:31:38;;;;;;;1.60;1.23;;;;;;;4.44;100.00;61279.88;5091472;28;20450;-72
2022/04/18 01:34:06;;;;;;;1.20;1.10;;;;;;;4.54;100.00;61290.00;5091292;28;20509;-71
2022/04/18 01:36:36;;;;;;;1.17;1.10;;;;;;;4.50;100.00;61288.25;5091325;28;21108;-72
2022/04/18 01:39:03;;;;;;;1.27;1.10;;;;;;;4.49;100.00;61284.69;5091692;28;20438;-72
2022/04/18 01:41:29;;;;;;;1.30;1.20;;;;;;;4.18;100.00;61252.75;5091434;28;20453;-72
2022/04/18 01:43:58;;;;;;;1.30;1.20;;;;;;;4.64;100.00;61300.63;5091430;28;20479;-72
2022/04/18 01:46:24;;;;;;;1.20;1.10;;;;;;;4.64;100.00;61300.63;5091421;28;20509;-72
2022/04/18 01:48:51;;;;;;;1.20;1.10;;;;;;;4.52;100.00;61285.34;5091245;28;20445;-72
2022/04/18 01:51:19;;;;;;;1.40;1.10;;;;;;;4.09;100.00;61242.63;5091241;28;20445;-72
2022/04/18 01:53:49;;;;;;;2.20;1.10;;;;;;;4.56;100.00;61292.13;5091228;28;20591;-73
2022/04/18 01:56:16;;;;;;;1.77;1.20;;;;;;;4.52;100.00;61288.41;5091470;28;20441;-73
2022/04/18 01:58:43;;;;;;;1.47;1.20;;;;;;;4.56;100.00;61294.66;5089969;28;20455;-73
2022/04/18 02:01:09;;;;;;;1.40;1.30;;;;;;;4.62;100.00;61298.50;5091104;28;20434;-71
2022/04/18 02:03:36;;;;;;;2.20;1.40;;;;;;;4.78;100.00;61315.53;5091383;28;20437;-73
2022/04/18 02:06:03;;;;;;;1.63;1.40;;;;;;;4.85;100.00;61323.00;5091109;28;20502;-73
2022/04/18 02:08:30;;;;;;;1.70;1.30;;;;;;;4.87;100.00;61325.13;5091195;28;20456;-71
2022/04/18 02:10:58;;;;;;;1.83;1.33;;;;;;;4.76;100.00;61308.38;5091108;28;20453;-72
2022/04/18 02:13:27;;;;;;;1.67;1.50;;;;;;;4.74;100.00;61311.28;5091085;28;20513;-73
2022/04/18 02:15:55;;;;;;;2.10;1.30;;;;;;;4.76;100.00;61313.41;5090936;28;20446;-71
2022/04/18 02:18:22;;;;;;;1.30;1.20;;;;;;;4.72;100.00;61311.69;5090916;28;20442;-72
2022/04/18 02:20:49;;;;;;;1.37;1.27;;;;;;;4.79;100.00;61317.13;5091203;28;20498;-73
2022/04/18 02:23:15;;;;;;;1.50;1.40;;;;;;;4.97;100.00;61335.78;5091025;28;20441;-71
2022/04/18 02:25:42;;;;;;;1.67;1.40;;;;;;;5.06;100.00;61345.38;5090919;28;20514;-72
2022/04/18 02:28:12;;;;;;;1.60;1.37;;;;;;;4.72;100.00;61309.69;5091057;28;20450;-73
2022/04/18 02:30:38;;;;;;;1.83;1.20;;;;;;;4.64;100.00;61301.19;5091453;28;20870;-71
2022/04/18 02:33:06;;;;;;;1.40;1.30;;;;;;;4.67;100.00;61301.31;5091025;28;20438;-71
2022/04/18 02:35:32;;;;;;;1.27;1.17;;;;;;;4.60;100.00;61294.41;5090945;28;20481;-72
2022/04/18 02:37:59;;;;;;;1.60;1.50;;;;;;;4.39;100.00;61277.06;5094603;28;20446;-72
2022/04/18 02:40:26;;;;;;;2.00;1.63;;;;;;;4.73;100.00;61310.22;5094513;28;20507;-72
2022/04/18 02:42:55;;;;;;;1.57;1.40;;;;;;;4.65;100.00;61299.19;5094520;28;20441;-71
2022/04/18 02:45:23;;;;;;;2.53;1.10;;;;;;;4.72;100.00;61312.22;5094583;28;20502;-72
2022/04/18 02:47:50;;;;;;;1.30;1.20;;;;;;;4.56;100.00;61292.13;5094550;28;20540;-71
2022/04/18 02:50:16;;;;;;;1.30;1.20;;;;;;;4.67;100.00;61304.34;5094237;28;20449;-72
2022/04/18 02:52:44;;;;;;;1.60;1.07;;;;;;;4.65;100.00;61299.19;5094313;28;20511;-73
2022/04/18 02:55:11;;;;;;;1.40;1.10;;;;;;;4.45;100.00;61285.47;5094013;28;20521;-72
2022/04/18 02:57:40;;;;;;;1.07;1.00;;;;;;;4.32;100.00;61271.63;5094053;28;20888;-72
2022/04/18 03:00:09;;;;;;;1.23;0.93;;;;;;;4.81;100.00;61319.28;5094187;28;20516;-72
2022/04/18 03:02:38;;;;;;;1.00;0.87;;;;;;;4.22;100.00;61259.53;5094187;28;20524;-71
2022/04/18 03:05:07;;;;;;;1.43;1.00;;;;;;;4.79;100.00;61314.09;5094852;28;20437;-72
2022/04/18 03:07:34;;;;;;;1.20;1.10;;;;;;;4.55;100.00;61291.06;5093942;28;20461;-72
2022/04/18 03:10:01;;;;;;;1.30;1.20;;;;;;;4.60;100.00;61293.84;5093828;28;20484;-71
2022/04/18 03:12:28;;;;;;;3.40;2.00;;;;;;;4.50;100.00;61288.25;5094164;28;20441;-73
2022/04/18 03:14:55;;;;;;;3.83;2.10;;;;;;;4.73;100.00;61310.22;5094041;28;20485;-74
2022/04/18 03:17:22;;;;;;;2.43;1.60;;;;;;;4.74;100.00;61311.28;5093842;28;20462;-73
2022/04/18 03:19:51;;;;;;;2.20;1.50;;;;;;;4.76;100.00;61316.47;5093503;28;20964;-73
2022/04/18 03:22:18;;;;;;;2.03;1.60;;;;;;;4.68;100.00;61302.91;5093871;28;20446;-72
2022/04/18 03:24:44;;;;;;;1.60;1.27;;;;;;;4.57;100.00;61296.22;5093609;28;20445;-73
2022/04/18 03:27:12;;;;;;;1.30;1.20;;;;;;;4.54;100.00;61290.00;5093910;28;20434;-72
2022/04/18 03:29:38;;;;;;;2.33;0.93;;;;;;;4.38;100.00;61273.50;5092220;28;20438;-72
2022/04/18 03:32:07;;;;;;;0.57;0.57;;;;;;;4.25;100.00;61257.66;5093822;28;20453;-73
2022/04/18 03:34:33;;;;;;;1.37;0.77;;;;;;;4.01;100.00;61234.09;5093383;28;20493;-72
2022/04/18 03:39:52;;;;;;;1.43;1.13;;;;;;;4.10;100.00;61246.75;5097555;28;20518;-72
2022/04/18 03:42:28;;;;;;;1.23;0.60;;;;;;;3.87;100.00;61219.75;5095094;28;20449;-72
2022/04/18 03:44:57;;;;;;;0.60;0.60;;;;;;;3.43;100.00;61167.91;5093748;28;20502;-72
2022/04/18 03:47:25;;;;;;;4.23;0.77;;;;;;;3.85;100.00;61217.09;5092065;28;20484;-72
2022/04/18 03:49:52;;;;;;;0.70;0.70;;;;;;;3.57;100.00;61192.88;5093235;28;20454;-73
2022/04/18 03:52:21;;;;;;;0.80;0.80;;;;;;;3.81;100.00;61213.38;5093209;28;20454;-72
2022/04/18 03:54:47;;;;;;;1.23;0.87;;;;;;;3.71;100.00;61202.72;5093158;28;20508;-72
2022/04/18 03:57:15;;;;;;;0.90;0.90;;;;;;;3.82;100.00;61208.88;5093170;28;20881;-74
2022/04/18 03:59:42;;;;;;;0.93;0.70;;;;;;;3.92;100.00;61225.09;5092939;28;20441;-74
2022/04/18 04:02:09;;;;;;;0.90;0.83;;;;;;;3.90;100.00;61222.94;5092573;28;20495;-73
2022/04/18 04:04:37;;;;;;;1.17;1.07;;;;;;;3.75;100.00;61201.94;5092865;28;20525;-73
2022/04/18 04:07:05;;;;;;;1.40;0.90;;;;;;;4.08;100.00;61242.09;5092751;28;20528;-73
2022/04/18 04:09:33;;;;;;;2.90;1.00;;;;;;;4.14;100.00;61245.44;5092716;28;20445;-74
2022/04/18 04:12:01;;;;;;;1.63;1.23;;;;;;;4.08;100.00;61239.59;5092860;28;20487;-72
2022/04/18 04:14:28;;;;;;;1.30;1.20;;;;;;;4.21;100.00;61255.38;5092681;28;20565;-72
2022/04/18 04:16:54;;;;;;;1.40;1.13;;;;;;;4.25;100.00;61259.66;5092593;28;20824;-73
2022/04/18 04:19:21;;;;;;;3.20;1.10;;;;;;;4.17;100.00;61251.66;5092383;28;20434;-72
2022/04/18 04:21:48;;;;;;;2.10;1.33;;;;;;;3.82;100.00;61214.44;5092560;28;20450;-74
2022/04/18 04:24:16;;;;;;;2.30;1.40;;;;;;;3.63;100.00;61194.22;5092562;28;20429;-73
2022/04/18 04:26:45;;;;;;;16.77;7.90;;;;;;;4.22;100.00;61257.00;5091862;28;20503;-71
2022/04/18 04:29:13;;;;;;;3.57;1.70;;;;;;;3.97;100.00;61230.38;5092259;28;20826;-72
2022/04/18 04:31:40;;;;;;;2.77;2.00;;;;;;;3.94;100.00;61227.22;5092240;28;20473;-72
2022/04/18 04:34:10;;;;;;;1.40;1.30;;;;;;;4.01;100.00;61234.09;5092156;28;20489;-73
2022/04/18 04:36:38;;;;;;;2.30;1.50;;;;;;;4.18;100.00;61252.75;5091983;28;20976;-73
2022/04/18 04:39:05;;;;;;;1.97;1.20;;;;;;;4.31;100.00;61263.00;5092114;28;20445;-72
2022/04/18 04:41:32;;;;;;;1.33;1.23;;;;;;;3.67;100.00;61197.94;5092067;28;20446;-74
2022/04/18 04:44:00;;;;;;;1.90;1.70;;;;;;;4.37;100.00;61272.41;5092152;28;20441;-72
2022/04/18 04:46:28;;;;;;;1.67;1.30;;;;;;;4.45;100.00;61277.91;5092206;28;20495;-74
2022/04/18 04:48:55;;;;;;;4.00;1.50;;;;;;;4.61;100.00;61297.47;5092053;28;20498;-73
2022/04/18 04:51:22;;;;;;;2.00;1.57;;;;;;;4.73;100.00;61310.22;5091424;28;20968;-73
2022/04/18 04:53:48;;;;;;;2.20;1.80;;;;;;;4.80;100.00;61317.69;5091714;28;20445;-73
2022/04/18 04:56:16;;;;;;;3.80;1.93;;;;;;;4.51;100.00;61289.34;5090360;28;20485;-71
2022/04/18 04:58:44;;;;;;;1.87;1.60;;;;;;;4.95;100.00;61329.13;5091413;28;20529;-72
2022/04/18 05:01:13;;;;;;;2.20;1.57;;;;;;;5.00;100.00;61339.50;5091585;28;20514;-74
2022/04/18 05:03:41;;;;;;;5.40;2.93;;;;;;;4.98;100.00;61331.81;5091606;28;20544;-74
2022/04/18 05:06:07;;;;;;;14.30;6.23;;;;;;;5.08;100.00;61348.03;5091831;28;20445;-73
2022/04/18 05:08:34;;;;;;;17.83;7.07;;;;;;;5.36;100.00;61379.84;5091441;28;20511;-73
2022/04/18 05:11:01;;;;;;;29.53;10.50;;;;;;;5.26;100.00;61366.69;5090999;28;20523;-72
2022/04/18 05:13:28;;;;;;;20.33;7.80;;;;;;;5.35;100.00;61376.28;5095472;28;20447;-72
2022/04/18 05:15:55;;;;;;;5.83;3.40;;;;;;;5.25;100.00;61365.63;5091451;28;20489;-72
2022/04/18 05:18:24;;;;;;;3.23;2.33;;;;;;;5.14;100.00;61353.88;5091577;28;20458;-72
2022/04/18 05:20:51;;;;;;;10.27;4.97;;;;;;;5.30;100.00;61370.94;5091412;28;20506;-73
2022/04/18 05:23:20;;;;;;;3.87;2.63;;;;;;;5.50;100.00;61389.19;5091763;28;20441;-73
2022/04/18 05:25:47;;;;;;;20.23;8.73;;;;;;;4.86;100.00;61329.66;5091800;28;21044;-72
2022/04/18 05:28:15;;;;;;;25.13;9.07;;;;;;;5.38;100.00;61378.94;5091671;28;20449;-72
2022/04/18 05:30:42;;;;;;;19.77;6.47;;;;;;;5.45;100.00;61386.94;5091571;28;20445;-72
2022/04/18 05:33:09;;;;;;;6.50;3.00;;;;;;;5.32;100.00;61375.59;5091332;28;20446;-72
2022/04/18 05:35:37;;;;;;;7.80;4.13;;;;;;;5.41;100.00;61382.13;5090951;28;20486;-73
2022/04/18 05:38:04;;;;;;;4.10;2.57;;;;;;;5.29;100.00;61371.88;5091297;28;20948;-73
2022/04/18 05:40:31;;;;;;;4.50;2.47;;;;;;;5.57;100.00;61399.72;5091524;28;20867;-72
2022/04/18 05:42:58;;;;;;;4.43;3.00;;;;;;;5.54;100.00;61391.47;5091429;28;20469;-73
2022/04/18 05:45:25;;;;;;;5.00;3.30;;;;;;;5.51;100.00;61388.28;5091182;28;20450;-72
2022/04/18 05:47:52;;;;;;;2.80;2.10;;;;;;;5.53;100.00;61395.47;5091295;28;20465;-73
2022/04/18 05:50:19;;;;;;;15.23;2.77;;;;;;;5.51;100.00;61393.31;5091545;28;20452;-72
2022/04/18 05:52:47;;;;;;;2.93;2.17;;;;;;;5.28;100.00;61368.81;5091963;28;20533;-73
2022/04/18 05:55:14;;;;;;;3.73;1.90;;;;;;;5.36;100.00;61377.34;5091317;28;20482;-72
2022/04/18 05:57:41;;;;;;;2.77;2.20;;;;;;;5.29;100.00;61369.34;5091169;28;20475;-72
2022/04/18 06:00:09;;;;;;;4.17;2.43;;;;;;;5.30;100.00;61370.94;5090152;28;20488;-72
2022/04/18 06:02:35;;;;;;;3.47;2.70;;;;;;;5.32;100.00;61375.06;5090969;28;20447;-72
2022/04/18 06:05:02;;;;;;;2.20;2.00;;;;;;;5.04;100.00;61343.25;5091029;28;20450;-71
2022/04/18 06:07:29;;;;;;;3.13;2.77;;;;;;;5.37;100.00;61380.38;5091207;28;20442;-73
2022/04/18 06:09:57;;;;;;;3.97;2.50;;;;;;;5.25;100.00;61365.63;5091315;28;20657;-72
2022/04/18 06:12:24;;;;;;;2.73;2.43;;;;;;;5.44;100.00;61385.84;5094043;28;20445;-72
2022/04/18 06:14:51;;;;;;;2.77;2.43;;;;;;;5.64;100.00;61407.16;5094642;28;20493;-72
2022/04/18 06:17:17;;;;;;;4.13;2.23;;;;;;;5.72;100.00;61410.09;5094832;28;20544;-72
2022/04/18 06:19:44;;;;;;;6.93;2.30;;;;;;;5.97;100.00;61436.78;5094727;28;20471;-73
2022/04/18 06:22:11;;;;;;;3.30;2.13;;;;;;;5.18;100.00;61353.09;5095070;28;20487;-73
2022/04/18 06:24:38;;;;;;;7.07;2.57;;;;;;;5.84;100.00;61433.03;5094572;28;20859;-73
2022/04/18 06:27:07;;;;;;;6.90;3.03;;;;;;;5.99;100.00;61443.97;5094831;28;20437;-72
2022/04/18 06:29:33;;;;;;;3.00;2.07;;;;;;;6.19;100.00;61470.34;5094535;28;20442;-73
2022/04/18 06:32:00;;;;;;;3.27;2.50;;;;;;;6.40;100.00;61487.69;5094449;28;20464;-71
2022/04/18 06:34:28;;;;;;;2.97;2.47;;;;;;;6.12;100.00;61457.31;5093942;28;20469;-72
2022/04/18 06:36:55;;;;;;;3.30;2.27;;;;;;;6.14;100.00;61459.44;5094683;28;20438;-73
2022/04/18 06:39:22;;;;;;;2.17;1.90;;;;;;;5.64;100.00;61407.16;5094210;28;20449;-72
2022/04/18 06:41:48;;;;;;;3.67;2.40;;;;;;;5.77;100.00;61421.03;5094123;28;20955;-71
2022/04/18 06:44:16;;;;;;;6.27;3.80;;;;;;;5.98;100.00;61443.44;5094426;28;20979;-72
2022/04/18 06:46:43;;;;;;;4.77;2.70;;;;;;;5.67;100.00;61412.91;5094136;28;20518;-71
2022/04/18 06:49:10;;;;;;;4.77;3.17;;;;;;;5.85;100.00;61429.59;5094459;28;20844;-73
2022/04/18 06:51:37;;;;;;;6.20;3.87;;;;;;;6.13;100.00;61458.38;5094140;28;20475;-73
2022/04/18 06:54:04;;;;;;;4.43;2.60;;;;;;;6.00;100.00;61441.97;5094319;28;20876;-72
2022/04/18 06:59:17;;;;;;;4.83;2.50;;;;;;;6.29;100.00;61475.44;5094333;28;20499;-72
2022/04/18 07:01:46;;;;;;;4.70;2.10;;;;;;;6.38;100.00;61485.56;5093885;28;20849;-72
2022/04/18 07:04:13;;;;;;;1.70;1.60;;;;;;;6.49;100.00;61494.78;5093737;28;20452;-72
2022/04/18 07:06:40;;;;;;;2.27;1.87;;;;;;;6.47;100.00;61494.63;5093979;28;20445;-72
2022/04/18 07:09:07;;;;;;;3.63;1.93;;;;;;;6.45;100.00;61495.03;5093842;28;20523;-72
2022/04/18 07:11:35;;;;;;;3.00;2.23;;;;;;;6.38;100.00;61490.09;5093527;28;20452;-71
2022/04/18 07:14:01;;;;;;;3.37;1.70;;;;;;;6.41;100.00;61488.22;5093514;28;20499;-73
2022/04/18 07:16:30;;;;;;;4.03;1.90;;;;;;;6.34;100.00;61481.28;5093506;28;20561;-71
2022/04/18 07:18:57;;;;;;;3.13;1.90;;;;;;;6.29;100.00;61477.97;5095006;28;20484;-72
2022/04/18 07:21:25;;;;;;;5.17;1.90;;;;;;;6.32;100.00;61478.63;5095192;28;20533;-71
2022/04/18 07:23:52;;;;;;;4.57;2.03;;;;;;;5.95;100.00;61440.25;5093768;28;20498;-72
2022/04/18 07:26:19;;;;;;;5.30;2.30;;;;;;;6.43;100.00;61490.38;5093482;28;20446;-72
2022/04/18 07:28:46;;;;;;;4.50;2.30;;;;;;;6.47;100.00;61492.09;5093728;28;20960;-72
2022/04/18 07:31:13;;;;;;;3.70;2.00;;;;;;;6.44;100.00;61491.97;5093442;28;20446;-73
2022/04/18 07:33:42;;;;;;;5.53;1.93;;;;;;;6.51;100.00;61499.44;5093637;28;20454;-73
2022/04/18 07:36:09;;;;;;;2.40;1.90;;;;;;;5.62;100.00;61405.03;5093471;28;20485;-71
2022/04/18 07:38:52;;;;;;;2.97;1.70;;;;;;;5.82;100.00;61426.34;5093405;28;20519;-72
2022/04/18 07:41:21;;;;;;;3.07;2.00;;;;;;;5.65;100.00;61407.72;5093828;28;20549;-72
2022/04/18 07:43:49;;;;;;;3.93;1.90;;;;;;;5.81;100.00;61425.31;5093242;28;20450;-73
2022/04/18 07:46:16;;;;;;;5.77;1.70;;;;;;;5.70;100.00;61413.56;5093123;28;20874;-72
2022/04/18 07:48:50;;;;;;;3.20;1.90;;;;;;;5.77;100.00;61420.50;5092821;28;20450;-73
2022/04/18 07:51:34;;;;;;;2.20;1.83;;;;;;;5.86;100.00;61428.13;5093108;28;20863;-72
2022/04/18 07:54:03;;;;;;;1.93;1.70;;;;;;;5.75;100.00;61418.91;5093296;28;20531;-72
2022/04/18 07:56:30;;;;;;;2.57;1.70;;;;;;;5.69;100.00;61412.50;5092933;28;20926;-72
2022/04/18 07:58:57;;;;;;;2.47;2.00;;;;;;;5.62;100.00;61405.03;5092853;28;20528;-71
2022/04/18 08:01:24;;;;;;;3.57;2.20;;;;;;;5.53;100.00;61395.47;5092752;28;20589;-72
2022/04/18 08:03:52;;;;;;;4.77;2.50;;;;;;;5.07;100.00;61349.47;5092652;28;20487;-72
2022/04/18 08:06:19;;;;;;;3.27;2.30;;;;;;;5.21;100.00;61363.34;5092887;28;20503;-72
2022/04/18 08:08:46;;;;;;;3.27;2.23;;;;;;;5.52;100.00;61399.44;5092776;28;20507;-73
2022/04/18 08:11:15;;;;;;;2.00;1.80;;;;;;;5.64;100.00;61404.63;5092636;28;20502;-72
2022/04/18 08:13:42;;;;;;;2.37;2.00;;;;;;;4.69;100.00;61311.53;5092535;28;20541;-72
2022/04/18 08:16:10;;;;;;;7.70;2.40;;;;;;;5.44;100.00;61385.31;5092290;28;20477;-73
2022/04/18 08:18:39;;;;;;;2.87;2.30;;;;;;;5.48;100.00;61390.13;5092458;28;20441;-72
2022/04/18 08:21:07;;;;;;;6.20;2.90;;;;;;;5.49;100.00;61385.59;5092633;28;20437;-72
2022/04/18 08:23:35;;;;;;;3.13;2.43;;;;;;;5.42;100.00;61383.72;5092329;28;20441;-71
2022/04/18 08:26:02;;;;;;;3.77;2.50;;;;;;;5.34;100.00;61372.66;5092413;28;20446;-73
2022/04/18 08:28:28;;;;;;;2.57;2.13;;;;;;;5.29;100.00;61367.34;5092163;28;20452;-74
2022/04/18 08:30:56;;;;;;;4.43;2.93;;;;;;;4.66;100.00;61302.78;5091935;28;20458;-71
2022/04/18 08:33:25;;;;;;;3.17;2.40;;;;;;;5.51;100.00;61393.31;5092154;28;20438;-72
2022/04/18 08:35:53;;;;;;;6.60;2.47;;;;;;;5.28;100.00;61373.84;5090609;28;20565;-72
2022/04/18 08:38:21;;;;;;;7.00;2.60;;;;;;;5.22;100.00;61362.41;5092136;28;20438;-71
2022/04/18 08:40:51;;;;;;;8.67;2.70;;;;;;;5.32;100.00;61373.06;5091998;28;20823;-73
2022/04/18 08:43:18;;;;;;;2.57;1.73;;;;;;;5.05;100.00;61341.78;5092059;28;20486;-72
2022/04/18 08:45:45;;;;;;;2.90;1.60;;;;;;;5.14;100.00;61353.88;5091890;28;20442;-71
2022/04/18 08:53:43;;;;;;;2.07;1.60;;;;;;;5.20;100.00;61355.22;5091906;28;20493;-71
2022/04/18 08:56:10;;;;;;;1.90;1.60;;;;;;;5.27;100.00;61372.81;5091668;28;21107;-71
2022/04/18 08:58:37;;;;;;;2.40;1.80;;;;;;;5.40;100.00;61381.59;5091810;28;20848;-72
2022/04/18 09:01:05;;;;;;;2.37;1.50;;;;;;;5.59;100.00;61401.31;5091677;28;20510;-72
2022/04/18 09:03:32;;;;;;;3.33;2.30;;;;;;;5.69;100.00;61411.97;5091528;28;20457;-71
2022/04/18 09:06:10;;;;;;;3.07;2.03;;;;;;;5.76;100.00;61419.41;5091551;28;20519;-71
2022/04/18 09:08:46;;;;;;;2.43;2.07;;;;;;;5.38;100.00;61381.97;5091465;28;20469;-72
2022/04/18 09:11:27;;;;;;;5.47;2.37;;;;;;;5.66;100.00;61409.31;5091454;28;20456;-73
2022/04/18 09:14:04;;;;;;;4.30;2.40;;;;;;;5.98;100.00;61447.94;5091947;28;20860;-72
2022/04/18 09:16:32;;;;;;;4.37;2.10;;;;;;;6.15;100.00;61460.50;5091509;28;20488;-73
2022/04/18 09:19:09;;;;;;;2.13;1.50;;;;;;;6.28;100.00;61474.38;5091626;28;20437;-72
2022/04/18 09:21:41;;;;;;;3.70;1.80;;;;;;;5.75;100.00;61413.84;5091894;28;20441;-71
2022/04/18 09:24:24;;;;;;;5.23;2.50;;;;;;;6.75;100.00;61525.03;5091934;28;20449;-72
2022/04/18 09:26:52;;;;;;;3.03;1.80;;;;;;;6.64;100.00;61512.78;5091324;28;20449;-71
2022/04/18 09:29:19;;;;;;;4.53;2.80;;;;;;;6.72;100.00;61518.78;5091812;28;20511;-73
2022/04/18 09:31:46;;;;;;;2.57;1.83;;;;;;;6.59;100.00;61507.97;5091388;28;20437;-72
2022/04/18 09:34:19;;;;;;;5.27;2.33;;;;;;;6.20;100.00;61465.84;5092003;28;20503;-73
2022/04/18 09:36:46;;;;;;;1.83;1.50;;;;;;;6.31;100.00;61477.56;5091401;28;20489;-72
2022/04/18 09:39:23;;;;;;;1.83;1.70;;;;;;;6.25;100.00;61474.22;5091300;28;20940;-72
2022/04/18 09:41:50;;;;;;;8.53;1.60;;;;;;;6.37;100.00;61483.97;5091055;28;20599;-73
2022/04/18 09:44:26;;;;;;;4.30;1.47;;;;;;;6.40;100.00;61485.16;5091506;28;20872;-71
2022/04/18 09:46:53;;;;;;;2.80;1.40;;;;;;;6.30;100.00;61473.97;5094004;28;20514;-71
2022/04/18 09:49:20;;;;;;;0.97;0.90;;;;;;;6.23;100.00;61469.03;5095502;28;20449;-72
2022/04/18 09:51:47;;;;;;;1.10;1.00;;;;;;;6.42;100.00;61486.78;5095310;28;20498;-70
2022/04/18 09:54:18;;;;;;;1.33;1.23;;;;;;;6.69;100.00;61518.63;5095226;28;20442;-72
2022/04/18 09:56:49;;;;;;;1.00;1.00;;;;;;;6.67;100.00;61513.44;5095284;28;20526;-72
2022/04/18 09:59:17;;;;;;;5.83;1.40;;;;;;;6.64;100.00;61517.84;5094797;28;20972;-73
2022/04/18 10:01:45;;;;;;;2.40;1.10;;;;;;;6.44;100.00;61491.44;5094576;28;20510;-74
2022/04/18 10:04:12;;;;;;;1.80;1.30;;;;;;;6.56;100.00;61504.75;5094912;28;20445;-72
2022/04/18 10:06:41;;;;;;;1.40;1.30;;;;;;;6.48;100.00;61495.72;5095037;28;20487;-71
2022/04/18 10:09:09;;;;;;;1.10;1.00;;;;;;;6.58;100.00;61506.38;5095481;28;20894;-72
2022/04/18 10:11:39;;;;;;;3.50;1.50;;;;;;;6.78;100.00;61528.22;5094674;28;20438;-72
2022/04/18 10:14:09;;;;;;;8.13;1.70;;;;;;;6.81;100.00;61531.44;5095173;28;20815;-73
2022/04/18 10:16:37;;;;;;;2.97;1.50;;;;;;;6.96;100.00;61544.41;5093547;28;20492;-73
2022/04/18 10:19:19;;;;;;;3.20;1.37;;;;;;;6.89;100.00;61536.38;5094328;28;20510;-73
2022/04/18 10:21:49;;;;;;;4.53;1.30;;;;;;;6.70;100.00;61521.72;5094924;28;20602;-73
2022/04/18 10:24:48;;;;;;;2.17;1.60;;;;;;;6.99;100.00;61547.59;5094441;28;20964;-73
2022/04/18 10:27:56;;;;;;;4.20;1.50;;;;;;;6.93;100.00;61541.19;5094724;28;20495;-72
2022/04/18 10:30:25;;;;;;;5.93;1.30;;;;;;;7.10;100.00;61561.88;5094682;28;20653;-73
2022/04/18 10:32:53;;;;;;;1.60;1.30;;;;;;;6.87;100.00;61537.31;5094793;28;20514;-72
2022/04/18 10:35:23;;;;;;;1.40;1.23;;;;;;;6.85;100.00;61535.19;5094515;28;21040;-73
2022/04/18 10:37:53;;;;;;;7.00;2.30;;;;;;;6.78;100.00;61527.72;5094422;28;20486;-73
2022/04/18 10:40:20;;;;;;;3.77;1.80;;;;;;;6.83;100.00;61535.56;5094394;28;20468;-72
2022/04/18 10:42:48;;;;;;;2.60;1.70;;;;;;;6.83;100.00;61533.03;5094339;28;20816;-72
2022/04/18 10:45:19;;;;;;;2.63;1.60;;;;;;;6.82;100.00;61531.97;5094431;28;20507;-71
2022/04/18 10:48:14;;;;;;;5.30;2.13;;;;;;;6.80;100.00;61527.31;5094274;28;20815;-72
2022/04/18 10:50:43;;;;;;;2.30;1.53;;;;;;;6.78;100.00;61530.25;5058220;28;20826;-71
2022/04/18 10:53:18;;;;;;;3.20;1.80;;;;;;;6.79;100.00;61526.25;5094275;28;20537;-72
2022/04/18 10:56:13;;;;;;;3.00;1.50;;;;;;;6.83;100.00;61535.56;5093903;28;20441;-72
2022/04/18 10:58:45;;;;;;;2.80;1.90;;;;;;;6.63;100.00;61511.69;5086497;28;20956;-72
2022/04/18 11:01:18;;;;;;;2.03;1.80;;;;;;;6.57;100.00;61500.25;5096181;28;20442;-72
2022/04/18 11:03:48;;;;;;;3.73;1.80;;;;;;;6.66;100.00;61512.38;5095152;28;20454;-73
2022/04/18 11:06:44;;;;;;;9.40;2.13;;;;;;;6.89;100.00;61541.97;5094503;28;20437;-71
2022/04/18 11:09:13;;;;;;;4.07;1.63;;;;;;;6.81;100.00;61530.91;5093935;28;20442;-72
2022/04/18 11:11:43;;;;;;;3.93;1.80;;;;;;;6.25;100.00;61469.16;5094074;28;20449;-72
2022/04/18 11:14:20;;;;;;;3.10;2.00;;;;;;;6.96;100.00;61544.41;5094079;28;20480;-73
2022/04/18 11:16:59;;;;;;;3.20;1.77;;;;;;;7.05;100.00;61556.53;5093631;28;20488;-72
2022/04/18 11:19:28;;;;;;;4.53;1.90;;;;;;;6.99;100.00;61547.59;5093963;28;20438;-73
2022/04/18 11:22:10;;;;;;;3.77;1.70;;;;;;;6.96;100.00;61546.38;5093682;28;20449;-72
2022/04/18 11:24:39;;;;;;;2.37;1.63;;;;;;;6.38;100.00;61485.03;5093749;28;20537;-72
2022/04/18 11:27:09;;;;;;;4.40;2.07;;;;;;;7.08;100.00;61556.66;5093591;28;20519;-72
2022/04/18 11:29:38;;;;;;;4.73;2.20;;;;;;;6.85;100.00;61537.72;5093510;28;20437;-74
2022/04/18 11:32:06;;;;;;;2.37;2.10;;;;;;;7.09;100.00;61560.78;5093409;28;20498;-73
2022/04/18 11:34:35;;;;;;;2.30;1.87;;;;;;;7.14;100.00;61556.00;5093072;28;20473;-73
2022/04/18 11:37:03;;;;;;;6.20;2.03;;;;;;;7.07;100.00;61558.66;5093801;28;20485;-71
2022/04/18 11:39:44;;;;;;;2.33;1.80;;;;;;;7.06;100.00;61557.59;5093421;28;20496;-71
2022/04/18 11:42:16;;;;;;;7.77;2.20;;;;;;;6.94;100.00;61544.25;5093316;28;20445;-70
2022/04/18 11:44:46;;;;;;;6.47;1.93;;;;;;;6.95;100.00;61545.84;5093039;28;20449;-72
2022/04/18 11:47:14;;;;;;;4.07;1.90;;;;;;;6.35;100.00;61476.78;5093141;28;20429;-72
2022/04/18 11:49:44;;;;;;;2.07;1.77;;;;;;;6.93;100.00;61543.19;5093140;28;20449;-71
2022/04/18 11:52:19;;;;;;;2.27;1.80;;;;;;;6.79;100.00;61528.78;5093404;28;20526;-73
2022/04/18 11:55:00;;;;;;;2.97;1.80;;;;;;;6.87;100.00;61534.78;5093172;28;20441;-72